Time;durP1;ratioP1;P1;durP2;ratioP2;P2;SDS_P1;SDS_P2;PMS_P1;PMS_P2;Temp;Humidity;BMP_temperature;BMP_pressure;BME280_temperature;BME280_humidity;BME280_pressure;Samples;Min_cycle;Max_cycle;Signal;HPM_P1;HPM_P2
2021/11/23 00:01:14;;;;;;;16.57;8.80;;;3.60;84.50;;;;;;4997904;28;20447;-67
2021/11/23 00:03:40;;;;;;;14.97;9.00;;;3.60;84.40;;;;;;4997748;28;20455;-67
2021/11/23 00:06:08;;;;;;;12.27;9.97;;;3.70;84.70;;;;;;4997596;28;20514;-67
2021/11/23 00:08:36;;;;;;;9.67;7.77;;;3.60;84.30;;;;;;4997592;28;20839;-66
2021/11/23 00:11:02;;;;;;;14.73;8.90;;;3.60;84.40;;;;;;4997440;28;20443;-66
2021/11/23 00:13:29;;;;;;;14.70;9.70;;;3.60;84.60;;;;;;4997646;28;20444;-66
2021/11/23 00:15:56;;;;;;;13.90;8.13;;;3.60;84.70;;;;;;4997364;28;20945;-66
2021/11/23 00:18:23;;;;;;;10.20;8.93;;;3.60;84.60;;;;;;4997487;28;20478;-66
2021/11/23 00:20:50;;;;;;;13.87;9.00;;;3.60;84.80;;;;;;4997264;28;20451;-66
2021/11/23 00:23:17;;;;;;;17.73;9.13;;;3.50;84.80;;;;;;4997331;28;20443;-66
2021/11/23 00:25:46;;;;;;;10.93;8.57;;;3.50;85.00;;;;;;4997673;28;20444;-66
2021/11/23 00:28:14;;;;;;;12.23;9.50;;;3.50;85.30;;;;;;4997365;28;20806;-67
2021/11/23 00:30:43;;;;;;;12.33;8.93;;;3.50;85.30;;;;;;4997340;28;20474;-66
2021/11/23 00:33:10;;;;;;;13.60;9.67;;;3.40;85.20;;;;;;4997079;28;21032;-66
2021/11/23 00:35:37;;;;;;;14.13;9.43;;;3.40;85.20;;;;;;4998045;28;20471;-66
2021/11/23 00:38:04;;;;;;;13.40;9.23;;;3.40;85.10;;;;;;4997081;28;20467;-66
2021/11/23 00:40:31;;;;;;;14.80;9.40;;;3.40;85.20;;;;;;4996794;28;20455;-67
2021/11/23 00:43:04;;;;;;;16.00;8.90;;;3.40;85.30;;;;;;4996677;28;20444;-66
2021/11/23 00:45:31;;;;;;;11.83;8.97;;;3.40;85.30;;;;;;4997785;28;20895;-66
2021/11/23 00:47:58;;;;;;;10.63;8.63;;;3.30;85.30;;;;;;4997299;28;20982;-67
2021/11/23 00:50:25;;;;;;;10.93;8.13;;;3.30;85.60;;;;;;4996739;28;20486;-66
2021/11/23 00:52:52;;;;;;;14.77;9.53;;;3.30;85.80;;;;;;4996851;28;20452;-66
2021/11/23 00:55:19;;;;;;;11.30;8.40;;;3.30;85.60;;;;;;4996798;28;20456;-67
2021/11/23 00:57:45;;;;;;;12.07;8.20;;;3.30;85.40;;;;;;4997844;28;20979;-67
2021/11/23 01:00:14;;;;;;;18.90;9.63;;;3.30;85.60;;;;;;4997014;28;20891;-67
2021/11/23 01:02:41;;;;;;;13.70;8.63;;;3.30;85.70;;;;;;4996654;28;20507;-67
2021/11/23 01:05:10;;;;;;;11.33;9.03;;;3.40;85.50;;;;;;4996526;28;20479;-67
2021/11/23 01:07:37;;;;;;;12.20;8.40;;;3.30;85.30;;;;;;4996083;28;20467;-67
2021/11/23 01:10:06;;;;;;;13.20;8.80;;;3.30;85.30;;;;;;4997184;28;20493;-67
2021/11/23 01:12:33;;;;;;;19.57;10.00;;;3.20;85.10;;;;;;4996374;28;20440;-67
2021/11/23 01:15:00;;;;;;;14.03;8.77;;;3.10;85.20;;;;;;4996416;28;20455;-67
2021/11/23 01:17:28;;;;;;;17.97;9.60;;;3.10;85.50;;;;;;4996109;28;20462;-67
2021/11/23 01:19:55;;;;;;;11.43;8.67;;;3.10;85.70;;;;;;4996297;28;20463;-67
2021/11/23 01:22:22;;;;;;;13.97;7.40;;;3.10;86.00;;;;;;4997244;28;20829;-67
2021/11/23 01:24:49;;;;;;;15.20;7.80;;;3.10;86.00;;;;;;4996280;28;20462;-67
2021/11/23 01:27:16;;;;;;;17.03;7.80;;;3.20;86.00;;;;;;4996340;28;20475;-67
2021/11/23 01:29:43;;;;;;;15.80;8.50;;;3.10;85.70;;;;;;4996234;28;20508;-67
2021/11/23 01:32:10;;;;;;;14.03;7.50;;;3.20;85.50;;;;;;4996483;28;20455;-67
2021/11/23 01:34:38;;;;;;;16.10;7.63;;;3.20;85.40;;;;;;4996129;28;20463;-67
2021/11/23 01:37:05;;;;;;;15.33;7.60;;;3.20;85.40;;;;;;4995812;28;20831;-67
2021/11/23 01:39:32;;;;;;;13.50;7.20;;;3.20;85.50;;;;;;4995882;28;20464;-67
2021/11/23 01:41:59;;;;;;;10.77;7.73;;;3.10;85.20;;;;;;4996044;28;20463;-68
2021/11/23 01:44:26;;;;;;;16.30;7.30;;;3.10;85.50;;;;;;4995971;28;20444;-67
2021/11/23 01:46:53;;;;;;;16.00;7.37;;;3.10;86.00;;;;;;4995497;28;20931;-67
2021/11/23 01:49:20;;;;;;;13.70;6.43;;;3.10;86.00;;;;;;4995630;28;20467;-67
2021/11/23 01:51:48;;;;;;;10.93;7.13;;;3.10;86.00;;;;;;4995822;28;20448;-67
2021/11/23 01:54:17;;;;;;;20.20;7.50;;;3.10;85.80;;;;;;4995779;28;20456;-67
2021/11/23 01:56:44;;;;;;;12.80;7.30;;;3.10;85.70;;;;;;4995644;28;20455;-67
2021/11/23 01:59:11;;;;;;;19.80;7.37;;;3.10;85.80;;;;;;4995276;28;20479;-67
2021/11/23 02:01:38;;;;;;;12.43;6.97;;;3.10;86.00;;;;;;4996078;28;20456;-67
2021/11/23 02:04:05;;;;;;;13.73;6.30;;;3.00;86.90;;;;;;4995108;28;20466;-67
2021/11/23 02:06:33;;;;;;;12.80;6.43;;;3.00;86.10;;;;;;4995516;28;20959;-67
2021/11/23 02:09:01;;;;;;;18.13;6.80;;;3.00;85.80;;;;;;4995291;28;20475;-67
2021/11/23 02:11:28;;;;;;;21.50;7.63;;;3.00;85.70;;;;;;4995332;28;20514;-67
2021/11/23 02:13:55;;;;;;;13.37;6.70;;;3.00;86.10;;;;;;4995818;28;20452;-67
2021/11/23 02:16:23;;;;;;;10.27;5.93;;;3.00;86.10;;;;;;4995115;28;20455;-67
2021/11/23 02:18:51;;;;;;;12.57;6.83;;;3.00;86.20;;;;;;4994206;28;21003;-68
2021/11/23 02:21:19;;;;;;;23.87;6.57;;;3.00;86.40;;;;;;4995073;28;20892;-68
2021/11/23 02:23:46;;;;;;;18.07;7.20;;;3.00;86.50;;;;;;4995254;28;20444;-68
2021/11/23 02:26:13;;;;;;;12.50;6.60;;;3.00;86.10;;;;;;4995149;28;20502;-68
2021/11/23 02:28:40;;;;;;;12.40;5.97;;;2.90;85.80;;;;;;4994719;28;20832;-67
2021/11/23 02:31:08;;;;;;;16.93;6.90;;;2.90;85.90;;;;;;4995103;28;20530;-67
2021/11/23 02:33:36;;;;;;;18.10;6.20;;;2.90;86.00;;;;;;4995296;28;20478;-68
2021/11/23 02:36:05;;;;;;;30.37;9.00;;;3.00;86.40;;;;;;4995049;28;20455;-68
2021/11/23 02:38:35;;;;;;;15.00;5.70;;;3.00;86.50;;;;;;4994481;28;20981;-68
2021/11/23 02:41:03;;;;;;;14.33;5.97;;;3.00;86.30;;;;;;4994413;28;20811;-67
2021/11/23 02:43:31;;;;;;;12.90;7.20;;;3.00;86.00;;;;;;4994395;28;20467;-67
2021/11/23 02:45:58;;;;;;;24.00;7.27;;;3.00;85.70;;;;;;4994261;28;20448;-67
2021/11/23 02:48:25;;;;;;;14.60;6.10;;;3.00;85.80;;;;;;4994638;28;20471;-68
2021/11/23 02:50:57;;;;;;;27.13;7.70;;;3.00;86.20;;;;;;4994536;28;20543;-68
2021/11/23 02:53:24;;;;;;;21.23;7.43;;;3.00;87.00;;;;;;4994652;28;20477;-67
2021/11/23 02:55:53;;;;;;;23.53;8.20;;;3.10;88.10;;;;;;4994703;28;20458;-68
2021/11/23 02:58:21;;;;;;;17.13;7.17;;;3.10;88.50;;;;;;4994641;28;20484;-67
2021/11/23 03:00:49;;;;;;;17.43;6.40;;;3.10;87.30;;;;;;4994208;28;20546;-67
2021/11/23 03:03:16;;;;;;;13.97;5.97;;;3.10;87.10;;;;;;4996046;28;20452;-67
2021/11/23 03:05:43;;;;;;;11.87;6.33;;;3.10;86.90;;;;;;4994392;28;20444;-67
2021/11/23 03:08:10;;;;;;;17.10;6.57;;;3.10;86.50;;;;;;4994403;28;20475;-67
2021/11/23 03:10:37;;;;;;;10.50;6.87;;;3.00;86.40;;;;;;4994206;28;20506;-67
2021/11/23 03:13:05;;;;;;;20.03;8.87;;;3.00;86.70;;;;;;4994340;28;20455;-67
2021/11/23 03:15:32;;;;;;;20.83;6.90;;;3.00;86.80;;;;;;4994170;28;20475;-67
2021/11/23 03:18:00;;;;;;;12.80;6.17;;;3.00;86.70;;;;;;4993965;28;20978;-68
2021/11/23 03:20:28;;;;;;;17.47;6.50;;;3.00;86.40;;;;;;4993972;28;20462;-68
2021/11/23 03:22:56;;;;;;;18.50;6.60;;;3.00;86.30;;;;;;4994051;28;20456;-68
2021/11/23 03:25:24;;;;;;;19.70;6.67;;;3.00;86.10;;;;;;4994181;28;20456;-68
2021/11/23 03:27:51;;;;;;;24.87;7.33;;;3.00;86.00;;;;;;4993672;28;20476;-68
2021/11/23 03:30:23;;;;;;;18.37;7.60;;;3.00;86.90;;;;;;4992784;28;20494;-67
2021/11/23 03:32:53;;;;;;;14.93;6.23;;;3.00;86.10;;;;;;4994131;28;20444;-67
2021/11/23 03:35:20;;;;;;;18.50;6.60;;;3.00;86.10;;;;;;4994874;28;20847;-67
2021/11/23 03:37:47;;;;;;;18.23;6.80;;;2.90;86.00;;;;;;4994243;28;20471;-68
2021/11/23 03:40:15;;;;;;;20.00;7.00;;;2.90;86.00;;;;;;4994082;28;20443;-68
2021/11/23 03:42:42;;;;;;;19.20;6.57;;;3.00;86.10;;;;;;4993827;28;20453;-68
2021/11/23 03:45:11;;;;;;;16.97;6.40;;;2.90;85.90;;;;;;4993701;28;20444;-68
2021/11/23 03:47:39;;;;;;;18.30;6.83;;;2.90;85.90;;;;;;4993619;28;20967;-67
2021/11/23 03:50:09;;;;;;;15.97;7.70;;;2.90;85.80;;;;;;4993718;28;20505;-67
2021/11/23 03:52:36;;;;;;;22.13;7.50;;;2.90;86.10;;;;;;4994429;28;20462;-67
2021/11/23 03:55:04;;;;;;;13.93;6.60;;;2.80;86.10;;;;;;4994206;28;20454;-67
2021/11/23 03:57:31;;;;;;;15.83;5.80;;;2.80;86.30;;;;;;4994289;28;20471;-67
2021/11/23 03:59:58;;;;;;;22.40;6.80;;;2.70;86.20;;;;;;4993671;28;20462;-67
2021/11/23 04:02:26;;;;;;;25.23;8.20;;;2.70;86.30;;;;;;4993937;28;20448;-67
2021/11/23 04:04:54;;;;;;;19.13;6.67;;;2.80;86.60;;;;;;4993585;28;20463;-67
2021/11/23 04:07:21;;;;;;;20.50;7.40;;;2.80;87.60;;;;;;4993782;28;20459;-67
2021/11/23 04:09:48;;;;;;;24.00;7.07;;;2.80;87.10;;;;;;4993808;28;20535;-67
2021/11/23 04:12:16;;;;;;;24.30;8.40;;;2.70;87.10;;;;;;4993469;28;20950;-67
2021/11/23 04:14:44;;;;;;;22.97;6.97;;;2.70;87.60;;;;;;4993808;28;20467;-67
2021/11/23 04:17:11;;;;;;;30.43;7.83;;;2.70;88.20;;;;;;4993769;28;20452;-67
2021/11/23 04:19:38;;;;;;;30.43;8.50;;;2.70;88.70;;;;;;4993540;28;20981;-67
2021/11/23 04:22:07;;;;;;;30.33;7.77;;;2.70;90.00;;;;;;4993714;28;20498;-67
2021/11/23 04:24:35;;;;;;;24.17;7.87;;;2.70;89.80;;;;;;4994000;28;20457;-68
2021/11/23 04:27:03;;;;;;;20.20;7.80;;;2.70;90.10;;;;;;4993669;28;20498;-67
2021/11/23 04:29:30;;;;;;;27.50;8.10;;;2.80;90.30;;;;;;4993829;28;20509;-67
2021/11/23 04:31:57;;;;;;;25.33;8.23;;;2.70;90.30;;;;;;4993286;28;20503;-67
2021/11/23 04:34:24;;;;;;;35.50;8.90;;;2.80;90.60;;;;;;4993592;28;20451;-67
2021/11/23 04:36:51;;;;;;;36.43;9.70;;;2.80;90.70;;;;;;4993594;28;20839;-67
2021/11/23 04:39:19;;;;;;;41.23;10.07;;;2.80;90.80;;;;;;4993781;28;20970;-67
2021/11/23 04:41:46;;;;;;;36.17;8.83;;;2.90;91.00;;;;;;4994179;28;20556;-67
2021/11/23 04:44:13;;;;;;;31.70;9.03;;;2.90;91.10;;;;;;4997124;28;20818;-68
2021/11/23 04:46:40;;;;;;;27.77;11.30;;;3.00;91.20;;;;;;4997118;28;20448;-67
2021/11/23 04:49:07;;;;;;;26.43;9.37;;;3.00;91.30;;;;;;4996963;28;20472;-67
2021/11/23 04:51:34;;;;;;;25.40;11.40;;;3.10;91.50;;;;;;4997295;28;20449;-67
2021/11/23 04:54:01;;;;;;;23.33;11.43;;;3.10;91.70;;;;;;4996588;28;20447;-67
2021/11/23 04:56:30;;;;;;;29.03;10.90;;;3.20;92.10;;;;;;4997307;28;20466;-67
2021/11/23 04:58:57;;;;;;;18.07;9.47;;;3.20;92.10;;;;;;4997341;28;20471;-67
2021/11/23 05:01:24;;;;;;;16.83;9.90;;;3.30;92.30;;;;;;4996763;28;20483;-67
2021/11/23 05:03:53;;;;;;;19.33;9.67;;;3.30;92.40;;;;;;4997189;28;20815;-67
2021/11/23 05:06:20;;;;;;;21.20;9.20;;;3.40;92.50;;;;;;4996994;28;21001;-67
2021/11/23 05:08:47;;;;;;;22.03;9.70;;;3.40;92.50;;;;;;4996829;28;20468;-67
2021/11/23 05:11:14;;;;;;;24.70;10.40;;;3.40;92.60;;;;;;4996589;28;20443;-67
2021/11/23 05:13:43;;;;;;;24.63;10.50;;;3.50;92.70;;;;;;4996828;28;20455;-67
2021/11/23 05:16:10;;;;;;;26.23;12.17;;;3.50;92.60;;;;;;4996623;28;20456;-67
2021/11/23 05:18:37;;;;;;;17.40;9.90;;;3.50;92.70;;;;;;4996695;28;20464;-67
2021/11/23 05:21:03;;;;;;;21.43;12.47;;;3.50;92.80;;;;;;4996294;28;20488;-67
2021/11/23 05:23:30;;;;;;;20.40;11.57;;;3.60;92.90;;;;;;4996439;28;20444;-67
2021/11/23 05:25:58;;;;;;;23.47;12.57;;;3.60;93.00;;;;;;4996465;28;20436;-67
2021/11/23 05:28:25;;;;;;;24.23;13.63;;;3.60;93.10;;;;;;4996348;28;20567;-67
2021/11/23 05:30:53;;;;;;;26.37;14.80;;;3.70;93.20;;;;;;4996077;28;20459;-67
2021/11/23 05:33:20;;;;;;;28.30;12.50;;;3.70;93.30;;;;;;4996305;28;20837;-68
2021/11/23 05:35:50;;;;;;;23.90;13.20;;;3.70;93.30;;;;;;4996225;28;20444;-68
2021/11/23 05:38:17;;;;;;;21.60;13.90;;;3.70;93.30;;;;;;4995760;28;21033;-68
2021/11/23 05:40:45;;;;;;;24.00;14.40;;;3.80;93.40;;;;;;4996074;28;20495;-68
2021/11/23 05:43:11;;;;;;;26.93;13.53;;;3.80;93.50;;;;;;4996072;28;20452;-68
2021/11/23 05:45:38;;;;;;;22.63;15.03;;;3.80;93.40;;;;;;4996193;28;20436;-68
2021/11/23 05:48:07;;;;;;;26.90;14.57;;;3.80;93.60;;;;;;4995608;28;21013;-68
2021/11/23 05:50:34;;;;;;;26.50;13.80;;;3.90;93.20;;;;;;4995898;28;20462;-68
2021/11/23 05:53:01;;;;;;;24.33;15.37;;;3.90;93.20;;;;;;4995291;28;20451;-68
2021/11/23 05:55:29;;;;;;;22.77;15.50;;;3.90;93.10;;;;;;4995558;28;20444;-68
2021/11/23 05:57:55;;;;;;;23.57;15.60;;;3.90;93.10;;;;;;4995840;28;20841;-68
2021/11/23 06:00:22;;;;;;;20.33;14.53;;;4.00;93.20;;;;;;4995720;28;20453;-68
2021/11/23 06:02:49;;;;;;;24.73;16.90;;;3.90;93.10;;;;;;4995764;28;20452;-68
2021/11/23 06:05:17;;;;;;;28.53;16.20;;;4.00;93.10;;;;;;4995606;28;20445;-68
2021/11/23 06:07:44;;;;;;;24.30;17.23;;;4.00;93.00;;;;;;4995542;28;20468;-68
2021/11/23 06:10:11;;;;;;;26.67;17.87;;;4.00;93.10;;;;;;4995509;28;20448;-68
2021/11/23 06:12:38;;;;;;;24.43;17.47;;;4.00;93.30;;;;;;4995520;28;20460;-68
2021/11/23 06:15:08;;;;;;;28.70;19.23;;;4.00;93.30;;;;;;4995382;28;20452;-68
2021/11/23 06:17:34;;;;;;;24.50;17.43;;;4.10;93.30;;;;;;4995289;28;20468;-68
2021/11/23 06:20:01;;;;;;;29.50;18.03;;;4.10;93.20;;;;;;4995070;28;20464;-68
2021/11/23 06:22:29;;;;;;;36.47;18.67;;;4.10;93.10;;;;;;4995003;28;20491;-68
2021/11/23 06:24:56;;;;;;;39.90;18.07;;;4.10;93.10;;;;;;4995385;28;20428;-68
2021/11/23 06:27:23;;;;;;;39.47;18.77;;;4.10;93.20;;;;;;4994902;28;20455;-68
2021/11/23 06:29:50;;;;;;;37.30;16.90;;;4.10;93.30;;;;;;4994721;28;20960;-68
2021/11/23 06:32:17;;;;;;;33.23;14.90;;;4.10;93.20;;;;;;4995070;28;20452;-68
2021/11/23 06:34:44;;;;;;;30.47;17.60;;;4.20;93.20;;;;;;4995004;28;20439;-68
2021/11/23 06:37:11;;;;;;;33.77;16.00;;;4.20;93.20;;;;;;4994730;28;20451;-68
2021/11/23 06:39:39;;;;;;;32.43;17.07;;;4.20;93.30;;;;;;4994708;28;20464;-68
2021/11/23 06:42:06;;;;;;;33.27;18.17;;;4.20;93.30;;;;;;4994320;28;20848;-68
2021/11/23 06:44:33;;;;;;;31.80;17.23;;;4.20;93.40;;;;;;4994655;28;20448;-68
2021/11/23 06:46:59;;;;;;;30.80;16.43;;;4.20;93.30;;;;;;4994430;28;20455;-68
2021/11/23 06:49:26;;;;;;;27.17;16.40;;;4.30;93.20;;;;;;4994220;28;20476;-68
2021/11/23 06:51:53;;;;;;;29.50;17.20;;;4.30;93.00;;;;;;4994658;28;20433;-68
2021/11/23 06:54:20;;;;;;;28.90;17.20;;;4.30;92.90;;;;;;4994736;28;20456;-68
2021/11/23 06:56:53;;;;;;;28.33;17.07;;;4.30;93.10;;;;;;4994518;28;20938;-68
2021/11/23 06:59:20;;;;;;;29.27;16.17;;;4.20;93.20;;;;;;4994661;28;20475;-68
2021/11/23 07:01:47;;;;;;;28.70;15.17;;;4.30;93.20;;;;;;4994519;28;20480;-68
2021/11/23 07:04:13;;;;;;;26.80;17.87;;;4.30;93.20;;;;;;4994156;28;20447;-68
2021/11/23 07:06:40;;;;;;;25.70;16.50;;;4.30;93.40;;;;;;4994467;28;20805;-68
2021/11/23 07:09:07;;;;;;;24.10;16.87;;;4.30;93.50;;;;;;4994446;28;20526;-68
2021/11/23 07:11:34;;;;;;;30.87;17.50;;;4.30;93.60;;;;;;4994067;28;20927;-67
2021/11/23 07:14:05;;;;;;;36.10;17.60;;;4.40;93.70;;;;;;4994400;28;20449;-67
2021/11/23 07:16:31;;;;;;;29.60;16.90;;;4.30;93.70;;;;;;4994473;28;20463;-67
2021/11/23 07:18:59;;;;;;;21.87;14.70;;;4.30;93.70;;;;;;4994542;28;20473;-68
2021/11/23 07:21:26;;;;;;;28.37;16.87;;;4.30;93.70;;;;;;4993832;28;20538;-67
2021/11/23 07:23:53;;;;;;;26.07;16.43;;;4.30;93.80;;;;;;4994268;28;20456;-67
2021/11/23 07:26:20;;;;;;;27.30;16.67;;;4.40;93.70;;;;;;4993844;28;20934;-67
2021/11/23 07:28:46;;;;;;;26.73;16.60;;;4.40;93.70;;;;;;4994013;28;20820;-67
2021/11/23 07:31:15;;;;;;;28.70;17.23;;;4.40;93.80;;;;;;4994065;28;20484;-67
2021/11/23 07:33:41;;;;;;;27.50;16.47;;;4.40;93.90;;;;;;4993960;28;20432;-67
2021/11/23 07:36:09;;;;;;;23.23;16.03;;;4.50;94.00;;;;;;4994237;28;20484;-67
2021/11/23 07:38:35;;;;;;;23.97;15.73;;;4.40;93.80;;;;;;4993727;28;20974;-67
2021/11/23 07:41:02;;;;;;;22.27;15.23;;;4.50;93.80;;;;;;4994210;28;20449;-67
2021/11/23 07:43:31;;;;;;;28.90;15.13;;;4.50;93.60;;;;;;4993827;28;20435;-67
2021/11/23 07:45:57;;;;;;;26.13;15.73;;;4.50;93.60;;;;;;4994077;28;20448;-67
2021/11/23 07:48:26;;;;;;;23.20;14.97;;;4.50;93.60;;;;;;4994148;28;20476;-67
2021/11/23 07:50:52;;;;;;;21.20;15.53;;;4.50;93.80;;;;;;4993959;28;20452;-67
2021/11/23 07:53:19;;;;;;;31.60;17.63;;;4.60;93.80;;;;;;4993881;28;20444;-67
2021/11/23 07:55:49;;;;;;;30.97;16.17;;;4.60;93.70;;;;;;4993569;28;20935;-67
2021/11/23 07:58:15;;;;;;;28.07;15.30;;;4.70;93.60;;;;;;4993728;28;21052;-68
2021/11/23 08:00:42;;;;;;;34.63;16.23;;;4.70;93.70;;;;;;4993809;28;20451;-68
2021/11/23 08:03:11;;;;;;;23.50;15.80;;;4.70;93.80;;;;;;4993810;28;20475;-67
2021/11/23 08:05:39;;;;;;;22.83;14.53;;;4.70;93.70;;;;;;4993479;28;20958;-67
2021/11/23 08:08:07;;;;;;;26.20;16.10;;;4.70;93.50;;;;;;4993714;28;20838;-67
2021/11/23 08:10:34;;;;;;;22.60;15.37;;;4.70;93.50;;;;;;4993769;28;20452;-67
2021/11/23 08:13:01;;;;;;;23.37;14.53;;;4.80;93.60;;;;;;4993776;28;20791;-67
2021/11/23 08:15:28;;;;;;;20.87;15.73;;;4.90;93.60;;;;;;4993741;28;20459;-67
2021/11/23 08:17:55;;;;;;;24.70;15.10;;;4.90;93.60;;;;;;4996199;28;20470;-67
2021/11/23 08:20:22;;;;;;;26.50;15.80;;;5.00;93.50;;;;;;4997447;28;20464;-67
2021/11/23 08:22:51;;;;;;;23.20;16.63;;;5.00;93.40;;;;;;4997413;28;20511;-67
2021/11/23 08:25:18;;;;;;;20.80;15.63;;;5.00;93.30;;;;;;4997177;28;20935;-67
2021/11/23 08:27:45;;;;;;;23.13;15.40;;;5.00;93.20;;;;;;4997389;28;20898;-67
2021/11/23 08:30:13;;;;;;;29.93;18.40;;;5.00;93.20;;;;;;4997346;28;20444;-67
2021/11/23 08:32:40;;;;;;;29.93;18.53;;;5.10;93.10;;;;;;4997462;28;20448;-67
2021/11/23 08:35:09;;;;;;;31.00;16.90;;;5.20;93.10;;;;;;4997334;28;20432;-67
2021/11/23 08:37:36;;;;;;;22.97;15.80;;;5.30;92.90;;;;;;4997659;28;20468;-67
2021/11/23 08:40:07;;;;;;;26.07;16.47;;;5.30;92.50;;;;;;4997141;28;20455;-67
2021/11/23 08:42:34;;;;;;;29.40;16.90;;;5.40;92.50;;;;;;4996913;28;20491;-67
2021/11/23 08:45:01;;;;;;;28.03;16.70;;;5.50;92.60;;;;;;4997076;28;20456;-67
2021/11/23 08:47:28;;;;;;;29.20;17.80;;;5.60;92.60;;;;;;4996979;28;20412;-67
2021/11/23 08:49:56;;;;;;;23.80;16.50;;;5.70;92.40;;;;;;4997204;28;20448;-67
2021/11/23 08:52:26;;;;;;;29.07;16.23;;;5.80;92.30;;;;;;4996666;28;20866;-67
2021/11/23 08:54:53;;;;;;;22.83;16.67;;;5.80;92.20;;;;;;4996875;28;20452;-68
2021/11/23 08:57:21;;;;;;;24.67;16.90;;;5.90;92.30;;;;;;4996751;28;20461;-68
2021/11/23 08:59:50;;;;;;;27.90;17.00;;;5.90;92.40;;;;;;4996840;28;20557;-68
2021/11/23 09:02:18;;;;;;;30.07;17.83;;;5.90;92.50;;;;;;4996676;28;20579;-68
2021/11/23 09:04:45;;;;;;;27.80;18.20;;;6.00;92.70;;;;;;4996792;28;20448;-68
2021/11/23 09:07:15;;;;;;;24.53;17.40;;;6.10;92.80;;;;;;4996930;28;20444;-68
2021/11/23 09:09:43;;;;;;;28.17;19.50;;;6.20;92.90;;;;;;4996688;28;20451;-68
2021/11/23 09:12:10;;;;;;;29.93;18.80;;;6.30;92.60;;;;;;4996547;28;20789;-68
2021/11/23 09:14:38;;;;;;;30.63;20.10;;;6.40;92.40;;;;;;4996573;28;20448;-68
2021/11/23 09:17:06;;;;;;;28.80;20.90;;;6.40;92.40;;;;;;4996170;28;20452;-68
2021/11/23 09:19:34;;;;;;;32.43;20.23;;;6.50;92.60;;;;;;4996073;28;20480;-68
2021/11/23 09:22:01;;;;;;;30.60;21.20;;;6.40;92.60;;;;;;4996274;28;20478;-68
2021/11/23 09:24:28;;;;;;;32.80;22.43;;;6.40;92.90;;;;;;4996456;28;20448;-68
2021/11/23 09:26:55;;;;;;;35.33;22.80;;;6.40;92.90;;;;;;4996339;28;20523;-68
2021/11/23 09:29:22;;;;;;;30.37;22.17;;;6.40;93.00;;;;;;4996407;28;20472;-68
2021/11/23 09:31:51;;;;;;;34.03;23.30;;;6.50;93.20;;;;;;4996196;28;20441;-68
2021/11/23 09:34:20;;;;;;;38.50;24.40;;;6.50;93.30;;;;;;4996150;28;20451;-68
2021/11/23 09:36:47;;;;;;;39.83;25.30;;;6.50;93.40;;;;;;4995763;28;20935;-68
2021/11/23 09:39:14;;;;;;;34.10;22.90;;;6.50;93.60;;;;;;4996036;28;20473;-68
2021/11/23 09:41:41;;;;;;;30.37;22.30;;;6.50;93.60;;;;;;4995955;28;20793;-68
2021/11/23 09:44:08;;;;;;;41.03;25.50;;;6.50;93.70;;;;;;4996133;28;20810;-68
2021/11/23 09:46:37;;;;;;;35.30;23.70;;;6.60;93.90;;;;;;4995776;28;20456;-68
2021/11/23 09:49:08;;;;;;;36.47;22.53;;;6.70;94.40;;;;;;4995389;28;20554;-68
2021/11/23 09:51:36;;;;;;;31.33;22.00;;;6.80;94.10;;;;;;4995671;28;20432;-68
2021/11/23 09:54:07;;;;;;;35.40;25.03;;;6.90;94.20;;;;;;4995680;28;20579;-68
2021/11/23 09:56:35;;;;;;;27.63;21.10;;;6.90;94.10;;;;;;4995231;28;20504;-68
2021/11/23 09:59:02;;;;;;;30.00;22.70;;;6.90;93.80;;;;;;4995557;28;20551;-68
2021/11/23 10:01:31;;;;;;;33.80;24.70;;;6.90;93.70;;;;;;4995821;28;20530;-68
2021/11/23 10:04:04;;;;;;;32.60;23.83;;;6.90;93.80;;;;;;4995709;28;20510;-68
2021/11/23 10:06:33;;;;;;;35.03;24.90;;;6.90;93.90;;;;;;4995951;28;20436;-68
2021/11/23 10:09:00;;;;;;;30.60;22.60;;;6.90;94.40;;;;;;4995773;28;20472;-68
2021/11/23 10:11:29;;;;;;;29.80;21.77;;;7.00;94.00;;;;;;4995555;28;20448;-68
2021/11/23 10:13:57;;;;;;;29.07;22.57;;;7.00;94.10;;;;;;4995463;28;20448;-68
2021/11/23 10:16:26;;;;;;;30.90;21.17;;;7.00;94.50;;;;;;4995382;28;20462;-68
2021/11/23 10:18:54;;;;;;;34.23;21.37;;;7.00;94.10;;;;;;4996118;28;20511;-68
2021/11/23 10:21:26;;;;;;;30.80;21.13;;;7.00;94.00;;;;;;4995130;28;20460;-68
2021/11/23 10:23:55;;;;;;;32.43;22.20;;;7.00;94.00;;;;;;4995315;28;20840;-68
2021/11/23 10:26:28;;;;;;;33.30;22.03;;;7.00;94.00;;;;;;4995454;28;20475;-68
2021/11/23 10:28:58;;;;;;;31.90;21.30;;;7.00;94.20;;;;;;4995579;28;20476;-68
2021/11/23 10:31:30;;;;;;;35.80;21.50;;;7.00;94.10;;;;;;4995280;28;20483;-68
2021/11/23 10:33:58;;;;;;;32.80;22.70;;;7.00;94.00;;;;;;4995133;28;20443;-68
2021/11/23 10:36:29;;;;;;;31.30;21.30;;;7.10;94.10;;;;;;4995133;28;20487;-68
2021/11/23 10:39:08;;;;;;;29.87;21.73;;;7.10;94.10;;;;;;4994979;28;20828;-68
2021/11/23 10:41:36;;;;;;;35.53;22.93;;;7.10;94.10;;;;;;4996727;28;20461;-72
2021/11/23 10:44:05;;;;;;;32.17;23.83;;;7.10;94.10;;;;;;4994922;28;20488;-72
2021/11/23 10:46:33;;;;;;;36.03;23.87;;;7.10;94.20;;;;;;4995003;28;20452;-72
2021/11/23 10:49:02;;;;;;;30.97;22.80;;;7.20;94.30;;;;;;4994774;28;20487;-71
2021/11/23 10:51:39;;;;;;;37.00;23.70;;;7.20;94.20;;;;;;4994640;28;20450;-71
2021/11/23 10:54:14;;;;;;;39.03;22.90;;;7.20;94.20;;;;;;4994705;28;20891;-71
2021/11/23 10:56:56;;;;;;;32.27;24.00;;;7.20;94.30;;;;;;4994659;28;20483;-71
2021/11/23 10:59:22;;;;;;;35.57;24.63;;;7.30;94.40;;;;;;4994538;28;20474;-71
2021/11/23 11:01:49;;;;;;;30.27;22.63;;;7.30;94.50;;;;;;4994588;28;20452;-72
2021/11/23 11:04:17;;;;;;;30.43;21.60;;;7.40;94.30;;;;;;4994220;28;21019;-72
2021/11/23 11:06:44;;;;;;;30.07;23.17;;;7.40;94.20;;;;;;4994680;28;20444;-72
2021/11/23 11:09:13;;;;;;;32.67;21.83;;;7.50;94.20;;;;;;4994510;28;20526;-72
2021/11/23 11:11:40;;;;;;;33.10;22.17;;;7.50;94.20;;;;;;4994453;28;20449;-72
2021/11/23 11:14:07;;;;;;;32.47;23.23;;;7.50;94.20;;;;;;4994336;28;20440;-72
2021/11/23 11:16:36;;;;;;;35.20;23.13;;;7.50;94.30;;;;;;4994404;28;20787;-72
2021/11/23 11:19:06;;;;;;;32.13;23.53;;;7.50;94.30;;;;;;4994481;28;20464;-72
2021/11/23 11:21:32;;;;;;;27.60;20.70;;;7.50;94.20;;;;;;4994574;28;20508;-69
2021/11/23 11:24:28;;;;;;;28.53;22.37;;;7.50;94.20;;;;;;4994698;28;20539;-69
2021/11/23 11:27:04;;;;;;;31.33;23.30;;;7.50;94.30;;;;;;4994819;28;20503;-69
2021/11/23 11:29:32;;;;;;;34.20;23.40;;;7.50;94.30;;;;;;4994273;28;20873;-69
2021/11/23 11:32:00;;;;;;;30.33;21.60;;;7.50;94.40;;;;;;4994505;28;20542;-69
2021/11/23 11:34:28;;;;;;;33.83;23.87;;;7.50;94.50;;;;;;4994220;28;20436;-69
2021/11/23 11:37:11;;;;;;;29.53;22.30;;;7.50;94.50;;;;;;4994191;28;20811;-69
2021/11/23 11:39:59;;;;;;;31.07;23.60;;;7.50;94.60;;;;;;4993815;28;21008;-69
2021/11/23 11:42:59;;;;;;;32.30;23.87;;;7.50;94.60;;;;;;4993793;28;20940;-69
2021/11/23 11:45:38;;;;;;;34.27;24.20;;;7.50;94.70;;;;;;4993808;28;20448;-69
2021/11/23 11:48:26;;;;;;;36.20;23.50;;;7.50;94.80;;;;;;4993785;28;21010;-69
2021/11/23 11:51:00;;;;;;;42.70;24.10;;;7.60;95.00;;;;;;4994110;28;20432;-69
2021/11/23 11:53:31;;;;;;;37.00;23.77;;;7.60;94.90;;;;;;4998147;28;20439;-69
2021/11/23 11:55:59;;;;;;;32.73;23.90;;;7.50;94.90;;;;;;4998498;28;20451;-69
2021/11/23 11:58:53;;;;;;;39.90;24.93;;;7.60;95.10;;;;;;4997950;28;20483;-69
2021/11/23 12:01:28;;;;;;;31.07;24.67;;;7.50;95.10;;;;;;4997983;28;20432;-69
2021/11/23 12:04:05;;;;;;;36.40;25.97;;;7.50;95.20;;;;;;4997393;28;21033;-69
2021/11/23 12:07:03;;;;;;;37.00;24.30;;;7.60;95.40;;;;;;4998448;28;20459;-69
2021/11/23 12:09:32;;;;;;;35.13;25.67;;;7.50;95.50;;;;;;4997463;28;21034;-69
2021/11/23 12:12:18;;;;;;;34.97;24.83;;;7.60;95.70;;;;;;4997471;28;20877;-69
2021/11/23 12:14:53;;;;;;;32.23;24.23;;;7.60;95.60;;;;;;4998366;28;20439;-69
2021/11/23 12:17:28;;;;;;;33.10;22.77;;;7.60;95.80;;;;;;4997920;28;20440;-69
2021/11/23 12:20:06;;;;;;;37.37;25.40;;;7.60;95.80;;;;;;4997635;28;20482;-69
2021/11/23 12:22:39;;;;;;;34.23;24.37;;;7.70;95.90;;;;;;4997558;28;20436;-69
2021/11/23 12:25:08;;;;;;;40.30;23.97;;;7.70;96.00;;;;;;4997728;28;20439;-69
2021/11/23 12:27:37;;;;;;;40.63;24.63;;;7.70;96.00;;;;;;4997561;28;20507;-68
2021/11/23 12:30:04;;;;;;;40.50;25.57;;;7.80;96.10;;;;;;4997877;28;20471;-69
2021/11/23 12:32:33;;;;;;;40.77;24.47;;;7.80;96.10;;;;;;4997419;28;20938;-69
2021/11/23 12:35:00;;;;;;;38.20;25.97;;;7.80;96.00;;;;;;4997654;28;20543;-70
2021/11/23 12:37:35;;;;;;;33.50;23.83;;;7.80;96.00;;;;;;4997292;28;20464;-69
2021/11/23 12:40:12;;;;;;;45.00;28.40;;;7.80;96.20;;;;;;4997399;28;20879;-69
2021/11/23 12:42:50;;;;;;;36.53;27.63;;;7.80;96.30;;;;;;4997276;28;20436;-69
2021/11/23 12:45:17;;;;;;;40.37;26.50;;;7.90;96.50;;;;;;4997403;28;20440;-69
2021/11/23 12:47:48;;;;;;;45.57;26.80;;;7.90;96.60;;;;;;4997250;28;20471;-69